This is the latest recevied weather packets stored in our database for station/object KG0HG. If no packets are shown the sender has not sent any weather packets the latest 1 day(s).
| Time | Temp. | Humidity | Pressure | Rain* | Wind** | Luminosity | Snow |
|---|---|---|---|---|---|---|---|
| 1778053745 | 7.22° C | 93% | 1014.4 hPa | 0 mm | - | 0 W/m² | - |
| 1778052534 | 7.22° C | 91% | 1014.8 hPa | 0 mm | - | 0 W/m² | - |
| 1778051021 | 7.78° C | 86% | 1015 hPa | 0 mm | - | 0 W/m² | - |
| 1778050718 | 7.78° C | 86% | 1015.4 hPa | 0 mm | - | 0 W/m² | - |
| 1778050416 | 7.78° C | 85% | 1015.7 hPa | 0 mm | - | 0 W/m² | - |
| 1778050112 | 7.78° C | 86% | 1015.6 hPa | 0 mm | - | 0 W/m² | - |
| 1778049505 | 7.78° C | 84% | 1015.4 hPa | 0 mm | - | 0 W/m² | - |
| 1778048901 | 7.78° C | 83% | 1015.8 hPa | 0 mm | - | 0 W/m² | - |
| 1778048598 | 8.33° C | 82% | 1015.8 hPa | 0 mm | - | 0 W/m² | - |
| 1778048294 | 8.33° C | 82% | 1016 hPa | 0 mm | - | 0 W/m² | - |
| 1778047991 | 8.33° C | 80% | 1015.9 hPa | 0 mm | - | 0 W/m² | - |
| 1778047689 | 8.33° C | 80% | 1015.8 hPa | 0 mm | - | 0 W/m² | - |
| 1778047387 | 8.33° C | 79% | 1015.7 hPa | 0 mm | - | 0 W/m² | - |
| 1778047083 | 8.89° C | 78% | 1015.6 hPa | 0 mm | - | 0 W/m² | - |
| 1778046477 | 8.89° C | 76% | 1015.7 hPa | 0 mm | - | 0 W/m² | - |
| 1778046174 | 8.89° C | 76% | 1015.8 hPa | 0 mm | - | 0 W/m² | - |
| 1778045266 | 8.33° C | 84% | 1015.8 hPa | 0 mm | - | 0 W/m² | - |
| 1778044965 | 8.89° C | 82% | 1015.5 hPa | 0 mm | - | 0 W/m² | - |
| 1778044662 | 8.89° C | 80% | 1015.1 hPa | 0 mm | - | 0 W/m² | - |
| 1778044358 | 8.89° C | 78% | 1015.3 hPa | 0 mm | - | 0 W/m² | - |
| 1778044056 | 8.89° C | 78% | 1015.4 hPa | 0 mm | - | 0 W/m² | - |
| 1778043753 | 9.44° C | 77% | 1015.1 hPa | 0 mm | - | 0 W/m² | - |
| 1778043450 | 9.44° C | 76% | 1015.1 hPa | 0 mm | - | 0 W/m² | - |
| 1778043146 | 9.44° C | 77% | 1015.2 hPa | 0 mm | - | 0 W/m² | - |
| 1778042844 | 8.89° C | 82% | 1015 hPa | 0 mm | - | 0 W/m² | - |
* Rain latest hour (hover to see other rain measurements)
** Current wind speed in m/s (hover to see current wind gust speed)